createdAt,value
2022-07-31T00:00:19.133Z,17.61
2022-07-31T00:05:15.538Z,17.68
2022-07-31T00:10:12.404Z,17.73
2022-07-31T00:15:10.399Z,17.69
2022-07-31T00:20:08.083Z,17.66
2022-07-31T00:25:04.905Z,17.63
2022-07-31T00:30:01.274Z,17.45
2022-07-31T00:34:58.961Z,17.15
2022-07-31T00:39:55.352Z,17.11
2022-07-31T00:44:52.765Z,17.08
2022-07-31T00:49:49.357Z,16.84
2022-07-31T00:54:46.142Z,16.81
2022-07-31T00:59:43.741Z,16.74
2022-07-31T01:04:41.733Z,16.63
2022-07-31T01:09:40.875Z,16.58
2022-07-31T01:14:41.607Z,16.40
2022-07-31T01:19:43.346Z,16.29
2022-07-31T01:24:48.506Z,16.08
2022-07-31T01:29:49.568Z,15.84
2022-07-31T01:34:52.858Z,15.72
2022-07-31T01:40:03.048Z,15.66
2022-07-31T01:45:01.892Z,15.49
2022-07-31T01:50:01.273Z,15.40
2022-07-31T01:54:59.768Z,15.27
2022-07-31T02:00:01.985Z,15.11
2022-07-31T02:04:59.146Z,14.92
2022-07-31T02:09:58.685Z,14.87
2022-07-31T02:14:56.941Z,14.78
2022-07-31T02:19:59.816Z,14.83
2022-07-31T02:24:56.822Z,14.81
2022-07-31T02:29:55.308Z,14.79
2022-07-31T02:34:55.504Z,14.71
2022-07-31T02:39:53.048Z,14.55
2022-07-31T02:44:50.885Z,14.55
2022-07-31T02:49:47.305Z,14.56
2022-07-31T02:54:44.663Z,14.59
2022-07-31T02:59:41.107Z,14.51
2022-07-31T03:04:37.504Z,14.60
2022-07-31T03:09:33.872Z,14.46
2022-07-31T03:14:32.729Z,14.38
2022-07-31T03:19:29.554Z,14.35
2022-07-31T03:24:26.930Z,14.35
2022-07-31T03:29:39.307Z,14.48
2022-07-31T03:34:40.059Z,14.45
2022-07-31T03:39:36.507Z,14.54
2022-07-31T03:44:33.949Z,14.67
2022-07-31T03:49:32.629Z,14.75
2022-07-31T03:54:29.037Z,14.84
2022-07-31T03:59:27.209Z,14.84
2022-07-31T04:04:25.353Z,14.87
2022-07-31T04:09:22.097Z,14.95
2022-07-31T04:14:18.487Z,14.96
2022-07-31T04:19:15.280Z,14.98
2022-07-31T04:24:13.719Z,15.09
2022-07-31T04:29:10.173Z,15.25
2022-07-31T04:34:06.554Z,15.50
2022-07-31T04:39:03.050Z,15.72
2022-07-31T04:44:00.286Z,15.91
2022-07-31T04:48:56.989Z,16.04
2022-07-31T04:53:53.477Z,16.10
2022-07-31T04:58:49.838Z,16.23
2022-07-31T05:03:46.226Z,16.41
2022-07-31T05:08:44.016Z,16.58
2022-07-31T05:13:40.390Z,16.70
2022-07-31T05:18:36.774Z,16.95
2022-07-31T05:23:33.167Z,17.13
2022-07-31T05:28:29.998Z,17.23
2022-07-31T05:33:27.166Z,17.30
2022-07-31T05:38:23.611Z,17.39
2022-07-31T05:43:20.431Z,17.57
2022-07-31T05:48:17.154Z,17.76
2022-07-31T05:53:17.439Z,18.10
2022-07-31T05:58:16.870Z,18.60
2022-07-31T06:03:14.094Z,19.05
2022-07-31T06:08:10.850Z,19.36
2022-07-31T06:13:07.511Z,19.50
2022-07-31T06:18:04.559Z,19.49
2022-07-31T06:23:00.941Z,19.59
2022-07-31T06:28:00.826Z,19.73
2022-07-31T06:32:57.520Z,19.85
2022-07-31T06:37:53.920Z,20.05
2022-07-31T06:42:50.319Z,20.05
2022-07-31T06:47:46.693Z,20.05
2022-07-31T06:52:43.173Z,20.07
2022-07-31T06:57:39.682Z,20.16
2022-07-31T07:02:36.575Z,20.24
2022-07-31T07:07:35.633Z,20.43
2022-07-31T07:12:31.977Z,20.64
2022-07-31T07:17:29.445Z,21.13
2022-07-31T07:22:30.108Z,21.66
2022-07-31T07:27:28.469Z,21.92
2022-07-31T07:32:25.207Z,22.13
2022-07-31T07:37:21.689Z,22.37
2022-07-31T07:42:18.113Z,22.48
2022-07-31T07:47:14.492Z,22.49
2022-07-31T07:52:11.353Z,22.55
2022-07-31T07:57:07.887Z,23.06
2022-07-31T08:02:04.441Z,23.30
2022-07-31T08:07:01.114Z,23.69
2022-07-31T08:11:57.496Z,23.53
2022-07-31T08:16:54.384Z,23.62
2022-07-31T08:21:51.021Z,23.46
2022-07-31T08:27:10.501Z,23.93
2022-07-31T08:32:07.640Z,24.01
2022-07-31T08:37:59.319Z,24.03
2022-07-31T08:42:24.258Z,22.81
2022-07-31T08:47:23.538Z,23.44
2022-07-31T08:52:26.242Z,23.77
2022-07-31T08:57:22.683Z,23.91
2022-07-31T09:02:19.152Z,23.64
2022-07-31T09:07:15.868Z,23.49
2022-07-31T09:12:12.367Z,23.28
2022-07-31T09:17:15.292Z,23.57
2022-07-31T09:22:25.723Z,23.74
2022-07-31T09:27:28.346Z,23.95
2022-07-31T09:32:24.781Z,24.12
2022-07-31T09:37:25.691Z,24.34
2022-07-31T09:42:23.340Z,24.45
2022-07-31T09:47:31.990Z,24.40
2022-07-31T09:52:30.388Z,24.60
2022-07-31T09:57:26.713Z,24.61
2022-07-31T10:02:25.493Z,24.86
2022-07-31T10:07:32.318Z,25.03
2022-07-31T10:12:31.243Z,25.45
2022-07-31T10:17:35.857Z,26.02
2022-07-31T10:22:38.838Z,26.43
2022-07-31T10:27:39.286Z,26.47
2022-07-31T10:32:36.053Z,25.79
2022-07-31T10:37:38.585Z,25.45
2022-07-31T10:42:46.450Z,25.10
2022-07-31T10:48:00.062Z,24.97
2022-07-31T10:53:16.921Z,24.10
2022-07-31T10:58:16.911Z,23.73
2022-07-31T11:03:14.015Z,23.59
2022-07-31T11:08:10.382Z,23.62
2022-07-31T11:13:10.917Z,23.75
2022-07-31T11:18:24.306Z,23.86
2022-07-31T11:23:29.652Z,24.37
2022-07-31T11:28:26.409Z,24.22
2022-07-31T11:33:46.086Z,23.78
2022-07-31T11:38:47.000Z,24.09
2022-07-31T11:43:46.911Z,23.44
2022-07-31T11:48:45.558Z,24.08
2022-07-31T11:53:42.852Z,23.70
2022-07-31T11:58:49.932Z,23.58
2022-07-31T12:03:46.567Z,24.03
2022-07-31T12:08:43.021Z,23.76
2022-07-31T12:13:39.547Z,23.86
2022-07-31T12:18:47.849Z,23.73
2022-07-31T12:23:49.780Z,23.96
2022-07-31T12:28:56.702Z,23.49
2022-07-31T12:33:53.540Z,23.54
2022-07-31T12:39:11.486Z,23.82
2022-07-31T12:44:14.285Z,23.79
2022-07-31T12:49:11.242Z,23.96
2022-07-31T12:54:08.956Z,23.82
2022-07-31T12:59:06.245Z,23.96
2022-07-31T13:04:03.493Z,23.74
2022-07-31T13:08:59.983Z,23.69
2022-07-31T13:13:57.507Z,23.42
2022-07-31T13:18:53.857Z,23.07
2022-07-31T13:23:53.141Z,22.93
2022-07-31T13:28:52.546Z,22.55
2022-07-31T13:33:48.863Z,22.62
2022-07-31T13:38:45.182Z,22.78
2022-07-31T13:44:00.075Z,22.96
2022-07-31T13:48:59.392Z,22.70
2022-07-31T13:53:56.276Z,22.58
2022-07-31T13:58:54.759Z,22.77
2022-07-31T14:03:51.249Z,23.08
2022-07-31T14:08:50.255Z,22.96
2022-07-31T14:13:47.034Z,23.08
2022-07-31T14:18:43.401Z,23.13
2022-07-31T14:23:40.844Z,22.96
2022-07-31T14:28:37.563Z,22.98
2022-07-31T14:33:33.931Z,22.79
2022-07-31T14:38:30.249Z,22.34
2022-07-31T14:43:26.567Z,21.68
2022-07-31T14:48:22.970Z,20.81
2022-07-31T14:53:19.302Z,20.21
2022-07-31T14:58:15.690Z,20.09
2022-07-31T15:03:12.435Z,20.36
2022-07-31T15:08:08.835Z,20.90
2022-07-31T15:13:05.213Z,21.79
2022-07-31T15:18:01.557Z,22.28
2022-07-31T15:22:58.142Z,22.68
2022-07-31T15:27:54.458Z,23.02
2022-07-31T15:32:52.236Z,24.07
2022-07-31T15:37:49.556Z,24.75
2022-07-31T15:42:47.483Z,25.77
2022-07-31T15:47:44.864Z,25.76
2022-07-31T15:52:42.725Z,25.15
2022-07-31T15:57:39.575Z,24.74
2022-07-31T16:02:37.327Z,24.17
2022-07-31T16:08:32.841Z,24.03
2022-07-31T16:12:50.396Z,24.15
2022-07-31T16:17:46.885Z,24.72
2022-07-31T16:22:44.241Z,25.17
2022-07-31T16:27:41.059Z,25.61
2022-07-31T16:32:38.236Z,25.70
2022-07-31T16:37:50.503Z,25.54
2022-07-31T16:42:50.658Z,25.51
2022-07-31T16:47:51.266Z,26.49
2022-07-31T16:52:52.587Z,26.45
2022-07-31T16:57:50.943Z,25.76
2022-07-31T17:02:47.336Z,24.53
2022-07-31T17:07:43.778Z,23.89
2022-07-31T17:12:40.094Z,23.57
2022-07-31T17:17:36.435Z,23.20
2022-07-31T17:22:37.749Z,23.02
2022-07-31T17:27:36.370Z,22.86
2022-07-31T17:32:34.652Z,22.77
2022-07-31T17:37:31.059Z,22.74
2022-07-31T17:42:27.720Z,22.65
2022-07-31T17:47:25.874Z,22.57
2022-07-31T17:52:22.730Z,22.45
2022-07-31T17:57:19.725Z,22.17
2022-07-31T18:02:18.808Z,21.85
2022-07-31T18:07:17.828Z,21.03
2022-07-31T18:12:15.887Z,19.53
2022-07-31T18:17:12.547Z,19.12
2022-07-31T18:22:08.907Z,19.03
2022-07-31T18:27:05.454Z,18.90
2022-07-31T18:32:02.023Z,18.93
2022-07-31T18:36:58.536Z,18.90
2022-07-31T18:41:54.846Z,18.90
2022-07-31T18:46:51.469Z,18.93
2022-07-31T18:51:47.831Z,18.94
2022-07-31T18:56:44.248Z,18.93
2022-07-31T19:01:40.604Z,18.93
2022-07-31T19:06:39.020Z,18.92
2022-07-31T19:11:35.457Z,18.90
2022-07-31T19:16:31.870Z,18.91
2022-07-31T19:21:42.517Z,18.89
2022-07-31T19:26:39.365Z,18.83
2022-07-31T19:31:35.814Z,18.84
2022-07-31T19:36:32.329Z,18.81
2022-07-31T19:41:28.791Z,18.78
2022-07-31T19:46:25.338Z,18.78
2022-07-31T19:51:21.873Z,18.94
2022-07-31T19:56:21.055Z,18.95
2022-07-31T20:01:20.406Z,18.84
2022-07-31T20:06:17.184Z,18.82
2022-07-31T20:11:13.678Z,18.69
2022-07-31T20:16:10.224Z,18.79
2022-07-31T20:21:09.348Z,18.50
2022-07-31T20:26:07.077Z,18.50
2022-07-31T20:31:03.716Z,18.38
2022-07-31T20:36:00.418Z,18.32
2022-07-31T20:40:56.867Z,18.26
2022-07-31T20:45:57.234Z,18.23
2022-07-31T20:50:54.098Z,18.20
2022-07-31T20:55:51.383Z,18.18
2022-07-31T21:00:48.931Z,18.18
2022-07-31T21:05:46.313Z,18.16
2022-07-31T21:10:42.747Z,18.14
2022-07-31T21:15:43.190Z,18.11
2022-07-31T21:20:51.947Z,18.14
2022-07-31T21:25:53.933Z,18.14
2022-07-31T21:30:53.521Z,18.10
2022-07-31T21:35:50.235Z,18.05
2022-07-31T21:40:47.227Z,18.05
2022-07-31T21:45:54.845Z,18.03
2022-07-31T21:50:54.754Z,18.03
2022-07-31T21:55:51.646Z,18.06
2022-07-31T22:00:48.091Z,18.05
2022-07-31T22:06:03.131Z,18.08
2022-07-31T22:10:59.838Z,18.06
2022-07-31T22:16:00.304Z,18.07
2022-07-31T22:20:58.219Z,18.08
2022-07-31T22:25:54.917Z,18.10
2022-07-31T22:30:52.725Z,18.07
2022-07-31T22:35:58.388Z,18.07
2022-07-31T22:40:57.522Z,18.07
2022-07-31T22:45:54.026Z,18.07
2022-07-31T22:50:50.504Z,18.07
2022-07-31T22:55:47.050Z,18.06
2022-07-31T23:00:43.398Z,18.02
2022-07-31T23:06:28.184Z,18.03
2022-07-31T23:10:56.135Z,17.97
2022-07-31T23:15:52.459Z,17.99
2022-07-31T23:20:48.786Z,17.98
2022-07-31T23:25:45.109Z,18.01
2022-07-31T23:30:41.447Z,18.03
2022-07-31T23:35:37.776Z,18.02
2022-07-31T23:40:34.126Z,18.01
2022-07-31T23:45:30.437Z,17.98
2022-07-31T23:50:27.826Z,17.96
2022-07-31T23:55:24.257Z,17.95
